RJFORJFR

Guest
Details From RJFO - OITA
To RJFR - NEW KITAKYUSHU
Flight Number -
Tags generated
Created
Modified
Stats Distance 44 nm / 81 km
Max Altitude 400 ft / 122 m
Waypoints 3
Social Downloads 0
Likes 0
Share VATSIM

Download

Looking for another format? Having issues loading an existing format? Contact us
Advertisement - Login to hide

Notes

Basic altitude profile: - Ascent Rate: 2500ft/min - Ascent Speed: 250kts - Cruise Altitude: 35000ft - Cruise Speed: 420kts - Descent Rate: 1500ft/min - Descent Speed: 250kts Options: - Use NATs: yes - Use PACOTS: yes - Use low airways: yes - Use high airways: yes

Route

RJFO KANDA RJFR

ID Type Via Altitude Latitude Longitude Leg Dist Tot Dist Heading (true) Name
O RJFO APT - 0 ft / 0 m 33.47950˚ 131.73712˚ - 0 nm - OITA
KANDA FIX - 400 ft / 122 m 33.81856˚ 131.00817˚ 41 nm 41 nm 299° / 299° -
O RJFR APT - 0 ft / 0 m 33.84594˚ 131.03469˚ 2 nm 43 nm 39° / 39° NEW KITAKYUSHU

Altitude Profile

Advertisement - Login to hide

RJFO

Details ICAO RJFO (OIT)
Name OITA
Region Japan
Timezone Asia/Tokyo (UTC+9.0)
Stats Elevation 19 ft / 6 m (AMSL)
Location 33.479503° 131.737125°
Runways 1
Magnetic Variation 7.422° W

METAR

RJFO 150400Z 09005KT 010V130 9999 FEW025 11/03 Q1022

Decode

TAF

TAF RJFO 142310Z 1500/1606 06004KT 9999 FEW030 BKN050 BECMG 1507/1509 24005KT BECMG 1515/1518 29006KT

Decode

Departure Runways

ID Width Length Bearing (true) Bearing (mag) Surface Threshold Offset Overrun Length
01 150 ft / 46 m 9,869 ft / 3,008 m 0.42° 7.84° Asphalt 0 ft / 0 m 200 ft / 61 m
19 150 ft / 46 m 9,869 ft / 3,008 m 180.42° 187.84° Asphalt 0 ft / 0 m 200 ft / 61 m

RJFR

Details ICAO RJFR (KKJ)
Name NEW KITAKYUSHU
Region Japan
Timezone Asia/Tokyo (UTC+9.0)
Stats Elevation 21 ft / 6 m (AMSL)
Location 33.845940° 131.034689°
Runways 1
Magnetic Variation 7.535° W

METAR

RJFR 150400Z VRB01KT 9999 FEW030 09/03 Q1023

Decode

TAF

TAF TAF RJFR 142315Z 1500/1606 13004KT 9999 FEW030 SCT050 TEMPO 1512/1515 4000 -SHRA BR BECMG 1515/1518 29013KT

Decode

Destination Runways

ID Width Length Bearing (true) Bearing (mag) Surface Threshold Offset Overrun Length
18 260 ft / 79 m 8,625 ft / 2,629 m 170.36° 177.89° Asphalt 0 ft / 0 m 0 ft / 0 m
36 260 ft / 79 m 8,625 ft / 2,629 m 350.36° 357.89° Asphalt 0 ft / 0 m 0 ft / 0 m

Approach Navaids

Runway Type Ident Frequency Range Bearing (true) Bearing (mag) Slope Elevation
18 Localiser IKQ 109.15 MHz 18 nm / 33 km 169.76° 177.30° - 54 ft / 16 m (AMSL)
18 Glidescope IKQ 109.15 MHz 10 nm / 19 km 170.36° 177.89° 3.00° 46 ft / 14 m (AMSL)